KLUF/LUF METAR and TAF weather

Enter ICAO airport designator
Station Type Date Time Source
KLUF METAR 2021/09/23 23:58 UTC NOAA

KLUF 232358Z AUTO 24008KT 10SM CLR 36/06 A2980 RMK AO2 SLP077 60000 T03590061 10370 20359 $


Station Type Date Time Source
KLUF Decoded METAR 2021/09/23 23:58 UTC NOAA

Luke Air Force Base / Phoenix, AZ, United States (KLUF) 33-32N 112-23W 332M
Sep 23, 2021 - 07:58 PM EDT / 2021.09.23 2358 UTC
Wind: from the WSW (240 degrees) at 9 MPH (8 KT):0
Visibility: 10 mile(s):0
Sky conditions: clear
Temperature: 96.6 F (35.9 C)
Dew Point: 43.0 F (6.1 C)
Relative Humidity: 15%
Pressure (altimeter): 29.8 in. Hg (1009 hPa)
ob: KLUF 232358Z AUTO 24008KT 10SM CLR 36/06 A2980 RMK AO2 SLP077 60000 T03590061 10370 20359
cycle: 0

Station Type Date Time Source
KLUF TAF 2021/09/23 12:07 UTC NOAA

TAF KLUF 231200Z 2312/2418 VRB06KT 9999 SCT200 QNH2985INS
BECMG 2320/2321 24012KT 9999 FEW120 SCT200 QNH2976INS
BECMG 2402/2403 VRB06KT 9999 FEW150 QNH2975INS TX39/2322Z TN23/2313Z

Example: see airport list